createdAt,value
2022-09-13T00:01:19.444Z,82.37
2022-09-13T00:10:53.492Z,83.79
2022-09-13T00:20:29.530Z,84.85
2022-09-13T00:30:02.207Z,86.23
2022-09-13T00:39:36.051Z,86.17
2022-09-13T00:49:11.343Z,87.34
2022-09-13T00:58:44.632Z,87.36
2022-09-13T01:08:18.355Z,88.22
2022-09-13T01:17:54.444Z,88.01
2022-09-13T01:27:27.100Z,88.49
2022-09-13T01:37:01.567Z,88.98
2022-09-13T01:46:35.987Z,89.34
2022-09-13T01:56:10.254Z,89.02
2022-09-13T02:05:46.091Z,88.76
2022-09-13T02:15:18.736Z,89.80
2022-09-13T02:24:53.067Z,90.16
2022-09-13T02:34:29.288Z,90.26
2022-09-13T02:44:02.279Z,90.73
2022-09-13T02:53:36.961Z,90.24
2022-09-13T03:03:12.797Z,90.35
2022-09-13T03:12:47.270Z,90.02
2022-09-13T03:22:19.980Z,100.00
2022-09-13T03:31:54.521Z,93.94
2022-09-13T03:41:29.237Z,91.45
2022-09-13T03:51:04.891Z,90.94
2022-09-13T04:00:38.364Z,90.53
2022-09-13T04:10:13.796Z,90.58
2022-09-13T04:19:47.380Z,90.56
2022-09-13T04:29:21.954Z,91.47
2022-09-13T04:38:56.222Z,91.92
2022-09-13T04:48:30.404Z,92.00
2022-09-13T04:58:05.275Z,91.77
2022-09-13T05:07:41.489Z,92.22
2022-09-13T05:17:14.647Z,92.30
2022-09-13T05:26:49.483Z,92.18
2022-09-13T05:36:24.024Z,91.10
2022-09-13T05:46:00.065Z,90.91
2022-09-13T05:55:34.670Z,90.58
2022-09-13T06:05:09.056Z,90.95
2022-09-13T06:14:43.569Z,91.54
2022-09-13T06:24:16.315Z,91.16
2022-09-13T06:33:52.802Z,91.07
2022-09-13T06:43:27.626Z,88.94
2022-09-13T06:53:00.674Z,88.20
2022-09-13T07:02:36.660Z,87.66
2022-09-13T07:12:09.165Z,87.70
2022-09-13T07:21:43.685Z,86.97
2022-09-13T07:31:18.364Z,88.42
2022-09-13T07:40:54.685Z,89.61
2022-09-13T07:50:27.900Z,90.18
2022-09-13T07:51:33.307Z,89.27
2022-09-13T08:01:04.287Z,87.59
2022-09-13T08:02:06.864Z,87.30
2022-09-13T08:03:10.821Z,87.18
2022-09-13T08:04:13.154Z,87.11
2022-09-13T08:05:15.585Z,87.19
2022-09-13T08:06:18.100Z,86.55
2022-09-13T08:07:20.559Z,86.22
2022-09-13T08:08:24.689Z,84.86
2022-09-13T08:09:27.039Z,84.88
2022-09-13T08:10:31.079Z,84.91
2022-09-13T08:20:04.157Z,85.63
2022-09-13T08:21:06.554Z,85.84
2022-09-13T08:22:08.904Z,86.20
2022-09-13T08:23:11.439Z,86.39
2022-09-13T08:24:13.888Z,86.35
2022-09-13T08:25:16.361Z,85.88
2022-09-13T08:26:20.385Z,85.33
2022-09-13T08:27:22.690Z,85.50
2022-09-13T08:36:55.658Z,87.61
2022-09-13T08:37:58.235Z,88.00
2022-09-13T08:39:02.243Z,87.68
2022-09-13T08:40:04.791Z,87.58
2022-09-13T08:41:07.185Z,87.41
2022-09-13T08:42:11.258Z,87.02
2022-09-13T08:43:13.739Z,86.40
2022-09-13T08:44:16.190Z,86.23
2022-09-13T08:45:18.656Z,85.53
2022-09-13T08:46:21.158Z,86.32
2022-09-13T08:47:25.204Z,86.42
2022-09-13T08:48:29.111Z,86.94
2022-09-13T08:49:33.075Z,86.87
2022-09-13T08:50:35.475Z,87.04
2022-09-13T08:51:39.557Z,86.66
2022-09-13T08:52:41.817Z,86.18
2022-09-13T08:53:45.978Z,86.32
2022-09-13T08:54:48.250Z,86.51
2022-09-13T08:55:50.738Z,86.35
2022-09-13T08:56:53.243Z,86.03
2022-09-13T08:57:55.722Z,86.03
2022-09-13T08:58:58.208Z,85.82
2022-09-13T09:00:02.174Z,85.12
2022-09-13T09:01:06.210Z,84.86
2022-09-13T09:02:09.509Z,84.90
2022-09-13T09:03:11.892Z,85.61
2022-09-13T09:04:14.307Z,85.96
2022-09-13T09:05:16.837Z,85.79
2022-09-13T09:06:19.275Z,84.72
2022-09-13T09:07:21.891Z,84.30
2022-09-13T09:08:25.856Z,84.17
2022-09-13T09:09:29.813Z,84.50
2022-09-13T09:10:33.184Z,84.98
2022-09-13T09:11:35.567Z,85.12
2022-09-13T09:12:38.010Z,85.10
2022-09-13T09:13:45.204Z,85.31
2022-09-13T09:14:46.048Z,85.69
2022-09-13T09:15:48.464Z,85.71
2022-09-13T09:16:50.846Z,85.89
2022-09-13T09:17:54.337Z,86.07
2022-09-13T09:18:58.280Z,86.44
2022-09-13T09:20:00.652Z,86.93
2022-09-13T09:21:04.715Z,87.27
2022-09-13T09:22:08.693Z,86.98
2022-09-13T09:23:10.980Z,86.35
2022-09-13T09:24:13.481Z,85.86
2022-09-13T09:25:17.578Z,85.60
2022-09-13T09:26:21.504Z,85.19
2022-09-13T09:27:23.947Z,84.44
2022-09-13T09:28:28.045Z,84.46
2022-09-13T09:29:30.347Z,84.72
2022-09-13T09:30:34.499Z,83.22
2022-09-13T09:31:36.771Z,82.49
2022-09-13T09:32:40.808Z,82.33
2022-09-13T09:33:43.178Z,81.97
2022-09-13T09:34:47.258Z,82.02
2022-09-13T09:35:49.641Z,82.91
2022-09-13T09:36:52.137Z,82.91
2022-09-13T09:37:56.170Z,83.22
2022-09-13T09:38:58.504Z,83.44
2022-09-13T09:40:02.692Z,84.07
2022-09-13T09:41:04.923Z,83.21
2022-09-13T09:42:07.334Z,81.96
2022-09-13T09:43:09.821Z,82.45
2022-09-13T09:44:13.856Z,83.03
2022-09-13T09:45:17.822Z,81.65
2022-09-13T09:46:22.019Z,81.90
2022-09-13T09:47:29.176Z,80.56
2022-09-13T09:48:28.159Z,81.07
2022-09-13T09:49:32.246Z,79.98
2022-09-13T09:50:34.638Z,79.64
2022-09-13T09:51:37.126Z,78.71
2022-09-13T09:52:39.555Z,78.82
2022-09-13T09:53:43.660Z,79.44
2022-09-13T09:54:45.988Z,80.65
2022-09-13T09:55:48.441Z,79.87
2022-09-13T09:56:50.873Z,80.01
2022-09-13T09:57:53.495Z,81.81
2022-09-13T09:58:56.026Z,81.49
2022-09-13T09:59:58.369Z,81.88
2022-09-13T10:01:02.462Z,80.74
2022-09-13T10:02:06.404Z,81.36
2022-09-13T10:03:10.378Z,82.06
2022-09-13T10:04:14.257Z,81.05
2022-09-13T10:05:16.632Z,80.82
2022-09-13T10:06:21.662Z,81.00
2022-09-13T10:07:25.582Z,80.86
2022-09-13T10:08:27.944Z,79.82
2022-09-13T10:09:30.385Z,79.75
2022-09-13T10:10:34.470Z,80.49
2022-09-13T10:11:36.902Z,80.82
2022-09-13T10:12:39.346Z,80.82
2022-09-13T10:13:42.045Z,80.50
2022-09-13T10:14:44.291Z,80.89
2022-09-13T10:15:46.823Z,80.09
2022-09-13T10:16:49.322Z,79.59
2022-09-13T10:17:51.779Z,79.46
2022-09-13T10:18:54.476Z,79.88
2022-09-13T10:19:56.808Z,80.65
2022-09-13T10:21:00.841Z,81.86
2022-09-13T10:22:03.181Z,81.61
2022-09-13T10:23:05.665Z,82.20
2022-09-13T10:24:09.851Z,81.95
2022-09-13T10:25:12.076Z,82.18
2022-09-13T10:26:14.563Z,81.84
2022-09-13T10:27:17.031Z,82.01
2022-09-13T10:28:21.143Z,82.34
2022-09-13T10:29:23.472Z,82.23
2022-09-13T10:30:25.997Z,82.40
2022-09-13T10:31:28.418Z,82.02
2022-09-13T10:32:30.885Z,82.44
2022-09-13T10:33:35.035Z,82.40
2022-09-13T10:34:37.357Z,82.14
2022-09-13T10:35:41.511Z,82.67
2022-09-13T10:36:52.856Z,82.54
2022-09-13T10:37:46.285Z,82.55
2022-09-13T10:38:50.549Z,83.23
2022-09-13T10:39:52.838Z,83.55
2022-09-13T10:40:57.006Z,82.75
2022-09-13T10:41:59.343Z,82.59
2022-09-13T10:43:03.484Z,81.63
2022-09-13T10:44:09.692Z,81.81
2022-09-13T10:45:11.357Z,82.15
2022-09-13T10:46:15.435Z,82.92
2022-09-13T10:47:17.643Z,82.19
2022-09-13T10:48:20.105Z,83.85
2022-09-13T10:49:22.565Z,84.51
2022-09-13T10:58:57.269Z,82.98
2022-09-13T10:59:59.796Z,83.45
2022-09-13T11:01:02.337Z,83.74
2022-09-13T11:02:06.416Z,84.05
2022-09-13T11:03:08.780Z,84.00
2022-09-13T11:04:11.238Z,83.66
2022-09-13T11:05:13.770Z,84.57
2022-09-13T11:06:16.247Z,84.93
2022-09-13T11:07:18.722Z,84.74
2022-09-13T11:08:23.037Z,85.55
2022-09-13T11:09:25.306Z,85.58
2022-09-13T11:10:27.820Z,85.24
2022-09-13T11:11:30.334Z,85.24
2022-09-13T11:12:34.398Z,84.81
2022-09-13T11:13:39.996Z,84.46
2022-09-13T11:14:42.372Z,84.35
2022-09-13T11:15:44.717Z,83.77
2022-09-13T11:16:47.238Z,83.26
2022-09-13T11:17:51.290Z,83.33
2022-09-13T11:18:53.616Z,83.24
2022-09-13T11:19:57.155Z,83.66
2022-09-13T11:20:58.523Z,83.38
2022-09-13T11:22:01.093Z,83.47
2022-09-13T11:23:05.154Z,81.77
2022-09-13T11:24:09.076Z,80.14
2022-09-13T11:25:14.116Z,80.56
2022-09-13T11:26:16.383Z,81.18
2022-09-13T11:27:18.873Z,81.85
2022-09-13T11:28:21.326Z,81.89
2022-09-13T11:29:23.825Z,81.16
2022-09-13T11:30:29.780Z,80.84
2022-09-13T11:31:30.413Z,80.24
2022-09-13T11:32:32.696Z,79.94
2022-09-13T11:33:35.217Z,79.97
2022-09-13T11:34:39.331Z,80.52
2022-09-13T11:35:41.697Z,80.31
2022-09-13T11:36:44.148Z,79.67
2022-09-13T11:37:48.270Z,80.03
2022-09-13T11:38:50.574Z,80.01
2022-09-13T11:39:53.108Z,79.73
2022-09-13T11:40:57.195Z,80.18
2022-09-13T11:41:59.555Z,79.93
2022-09-13T11:43:03.650Z,80.50
2022-09-13T11:44:05.989Z,78.47
2022-09-13T11:45:08.489Z,78.34
2022-09-13T11:46:10.943Z,78.14
2022-09-13T11:47:13.401Z,78.60
2022-09-13T11:48:17.480Z,79.93
2022-09-13T11:49:21.489Z,79.93
2022-09-13T11:50:23.876Z,78.77
2022-09-13T11:51:27.982Z,79.78
2022-09-13T11:52:30.336Z,80.17
2022-09-13T11:53:33.861Z,79.80
2022-09-13T11:54:36.270Z,79.50
2022-09-13T11:55:38.765Z,78.73
2022-09-13T11:56:41.280Z,78.04
2022-09-13T11:57:45.273Z,77.98
2022-09-13T11:58:47.629Z,78.44
2022-09-13T11:59:50.117Z,79.47
2022-09-13T12:00:54.264Z,79.68
2022-09-13T12:01:56.720Z,80.22
2022-09-13T12:02:59.273Z,80.46
2022-09-13T12:04:01.609Z,79.47
2022-09-13T12:05:21.368Z,79.99
2022-09-13T12:06:08.081Z,80.48
2022-09-13T12:07:10.638Z,80.97
2022-09-13T12:08:13.106Z,80.47
2022-09-13T12:09:17.190Z,80.28
2022-09-13T12:10:19.524Z,81.01
2022-09-13T12:11:22.015Z,81.11
2022-09-13T12:12:24.506Z,81.23
2022-09-13T12:13:28.599Z,81.56
2022-09-13T12:14:30.956Z,80.88
2022-09-13T12:15:35.051Z,80.90
2022-09-13T12:16:39.000Z,80.75
2022-09-13T12:17:41.393Z,80.84
2022-09-13T12:18:43.871Z,81.41
2022-09-13T12:19:46.335Z,81.44
2022-09-13T12:20:48.874Z,80.79
2022-09-13T12:21:51.355Z,80.71
2022-09-13T12:31:26.030Z,83.38
2022-09-13T12:32:28.416Z,82.35
2022-09-13T12:33:31.032Z,81.98
2022-09-13T12:34:33.550Z,82.70
2022-09-13T12:35:36.104Z,82.44
2022-09-13T12:36:40.136Z,83.17
2022-09-13T12:37:42.525Z,82.93
2022-09-13T12:38:46.663Z,82.53
2022-09-13T12:39:50.714Z,82.34
2022-09-13T12:40:52.896Z,80.87
2022-09-13T12:41:55.417Z,80.91
2022-09-13T12:42:59.502Z,80.99
2022-09-13T12:44:01.873Z,81.30
2022-09-13T12:45:04.400Z,81.41
2022-09-13T12:46:06.956Z,81.16
2022-09-13T12:47:09.393Z,80.53
2022-09-13T12:48:11.935Z,80.81
2022-09-13T12:49:15.973Z,81.41
2022-09-13T12:51:23.889Z,80.78
2022-09-13T12:52:27.826Z,79.54
2022-09-13T12:53:31.780Z,79.95
2022-09-13T12:54:34.131Z,80.11
2022-09-13T12:55:47.328Z,79.81
2022-09-13T12:56:40.577Z,79.91
2022-09-13T12:57:44.714Z,80.15
2022-09-13T13:07:17.404Z,80.39
2022-09-13T13:08:21.337Z,80.59
2022-09-13T13:09:28.732Z,80.69
2022-09-13T13:10:27.635Z,79.47
2022-09-13T13:11:30.087Z,79.39
2022-09-13T13:12:32.606Z,79.25
2022-09-13T13:13:36.720Z,79.01
2022-09-13T13:14:39.112Z,79.40
2022-09-13T13:15:46.589Z,79.08
2022-09-13T13:16:46.551Z,79.55
2022-09-13T13:17:50.526Z,80.04
2022-09-13T13:18:52.890Z,80.30
2022-09-13T13:19:56.975Z,80.19
2022-09-13T13:21:00.977Z,79.16
2022-09-13T13:22:03.303Z,79.76
2022-09-13T13:23:05.818Z,79.67
2022-09-13T13:24:09.894Z,79.28
2022-09-13T13:25:13.807Z,79.29
2022-09-13T13:26:17.768Z,78.91
2022-09-13T13:27:20.139Z,79.51
2022-09-13T13:28:22.624Z,79.96
2022-09-13T13:29:27.681Z,80.64
2022-09-13T13:30:29.967Z,80.96
2022-09-13T13:31:32.579Z,81.09
2022-09-13T13:32:36.568Z,81.33
2022-09-13T13:33:38.879Z,81.32
2022-09-13T13:34:43.042Z,80.89
2022-09-13T13:35:47.080Z,80.96
2022-09-13T13:36:49.399Z,81.88
2022-09-13T13:37:51.917Z,82.10
2022-09-13T13:38:56.018Z,81.37
2022-09-13T13:39:59.082Z,80.52
2022-09-13T13:41:00.950Z,79.71
2022-09-13T13:42:03.506Z,79.46
2022-09-13T13:43:05.967Z,79.97
2022-09-13T13:44:08.487Z,80.47
2022-09-13T13:45:10.977Z,79.08
2022-09-13T13:46:15.057Z,79.75
2022-09-13T13:47:17.445Z,79.42
2022-09-13T13:48:19.936Z,79.95
2022-09-13T13:49:22.418Z,79.12
2022-09-13T13:50:24.913Z,77.92
2022-09-13T13:51:27.352Z,78.52
2022-09-13T13:52:29.899Z,78.59
2022-09-13T13:53:32.367Z,77.79
2022-09-13T13:54:36.527Z,77.99
2022-09-13T13:55:38.851Z,78.05
2022-09-13T13:56:41.360Z,78.36
2022-09-13T13:57:43.938Z,78.66
2022-09-13T13:58:46.351Z,79.11
2022-09-13T13:59:50.479Z,77.27
2022-09-13T14:00:52.944Z,77.92
2022-09-13T14:01:55.398Z,78.45
2022-09-13T14:02:57.879Z,78.01
2022-09-13T14:04:06.028Z,76.65
2022-09-13T14:05:09.751Z,76.89
2022-09-13T14:06:12.075Z,75.72
2022-09-13T14:07:21.560Z,75.46
2022-09-13T14:08:17.079Z,76.40
2022-09-13T14:09:19.577Z,77.18
2022-09-13T14:10:22.026Z,77.07
2022-09-13T14:11:24.511Z,77.93
2022-09-13T14:12:26.966Z,76.21
2022-09-13T14:13:31.078Z,76.93
2022-09-13T14:14:33.559Z,77.54
2022-09-13T14:15:36.055Z,77.78
2022-09-13T14:16:38.493Z,77.27
2022-09-13T14:17:41.002Z,76.80
2022-09-13T14:18:45.115Z,77.59
2022-09-13T14:19:47.484Z,78.03
2022-09-13T14:20:50.041Z,77.77
2022-09-13T14:21:54.146Z,77.62
2022-09-13T14:22:56.506Z,77.20
2022-09-13T14:24:01.594Z,78.19
2022-09-13T14:25:03.860Z,77.82
2022-09-13T14:26:06.413Z,77.70
2022-09-13T14:27:10.560Z,77.79
2022-09-13T14:28:12.932Z,78.61
2022-09-13T14:29:15.390Z,78.88
2022-09-13T14:30:19.523Z,79.36
2022-09-13T14:31:21.963Z,78.85
2022-09-13T14:32:26.213Z,77.87
2022-09-13T14:33:29.987Z,77.42
2022-09-13T14:34:32.457Z,76.74
2022-09-13T14:35:34.947Z,77.22
2022-09-13T14:36:37.465Z,76.88
2022-09-13T14:37:41.578Z,76.49
2022-09-13T14:38:43.929Z,76.87
2022-09-13T14:39:46.416Z,77.27
2022-09-13T14:40:50.526Z,77.23
2022-09-13T14:41:52.825Z,77.18
2022-09-13T14:42:55.338Z,76.23
2022-09-13T14:43:59.484Z,75.77
2022-09-13T14:45:01.830Z,76.65
2022-09-13T14:46:05.861Z,77.62
2022-09-13T14:47:08.405Z,77.20
2022-09-13T14:48:12.343Z,77.53
2022-09-13T14:49:14.716Z,77.39
2022-09-13T14:50:17.177Z,77.99
2022-09-13T14:51:19.692Z,78.62
2022-09-13T14:52:22.194Z,79.06
2022-09-13T14:53:24.661Z,80.28
2022-09-13T14:54:27.147Z,80.11
2022-09-13T14:55:31.294Z,80.38
2022-09-13T14:56:33.735Z,80.27
2022-09-13T14:57:36.283Z,79.75
2022-09-13T14:58:40.364Z,79.83
2022-09-13T14:59:42.807Z,80.01
2022-09-13T15:00:45.315Z,80.07
2022-09-13T15:01:47.755Z,80.39
2022-09-13T15:02:50.315Z,80.29
2022-09-13T15:03:54.416Z,80.27
2022-09-13T15:04:56.826Z,80.21
2022-09-13T15:05:59.261Z,79.92
2022-09-13T15:07:03.341Z,80.10
2022-09-13T15:08:05.724Z,80.37
2022-09-13T15:09:08.162Z,80.84
2022-09-13T15:10:10.704Z,80.38
2022-09-13T15:11:13.182Z,80.44
2022-09-13T15:12:17.260Z,80.62
2022-09-13T15:13:19.662Z,80.89
2022-09-13T15:14:22.200Z,81.29
2022-09-13T15:15:25.671Z,80.89
2022-09-13T15:16:28.095Z,80.44
2022-09-13T15:17:30.516Z,80.78
2022-09-13T15:18:36.394Z,80.93
2022-09-13T15:19:35.522Z,80.99
2022-09-13T15:20:39.592Z,81.12
2022-09-13T15:21:41.979Z,80.69
2022-09-13T15:22:44.401Z,80.75
2022-09-13T15:23:46.847Z,80.86
2022-09-13T15:24:50.931Z,80.67
2022-09-13T15:25:55.036Z,80.87
2022-09-13T15:26:57.231Z,80.92
2022-09-13T15:27:59.751Z,81.32
2022-09-13T15:29:02.297Z,81.07
2022-09-13T15:30:04.739Z,81.42
2022-09-13T15:31:07.294Z,81.79
2022-09-13T15:32:09.764Z,81.05
2022-09-13T15:33:12.275Z,81.24
2022-09-13T15:34:14.769Z,81.08
2022-09-13T15:35:17.266Z,81.45
2022-09-13T15:36:21.434Z,81.53
2022-09-13T15:37:23.891Z,81.13
2022-09-13T15:38:26.370Z,81.39
2022-09-13T15:39:28.900Z,81.31
2022-09-13T15:40:31.488Z,81.15
2022-09-13T15:41:33.846Z,81.24
2022-09-13T15:42:36.354Z,81.45
2022-09-13T15:43:40.458Z,81.54
2022-09-13T15:44:42.836Z,81.74
2022-09-13T15:45:46.896Z,81.81
2022-09-13T15:46:49.292Z,81.67
2022-09-13T15:47:53.344Z,81.69
2022-09-13T15:48:58.247Z,81.80
2022-09-13T15:50:00.544Z,81.98
2022-09-13T15:51:02.999Z,81.81
2022-09-13T15:52:05.467Z,81.90
2022-09-13T15:53:08.004Z,82.12
2022-09-13T15:54:10.522Z,82.22
2022-09-13T15:55:13.012Z,82.53
2022-09-13T15:56:15.527Z,82.56
2022-09-13T15:57:18.051Z,82.60
2022-09-13T15:58:22.089Z,82.63
2022-09-13T15:59:24.453Z,82.77
2022-09-13T16:00:28.589Z,82.80
2022-09-13T16:01:31.006Z,82.60
2022-09-13T16:02:34.983Z,82.77
2022-09-13T16:03:38.989Z,82.80
2022-09-13T16:04:41.365Z,82.97
2022-09-13T16:05:43.840Z,82.85
2022-09-13T16:06:47.991Z,82.99
2022-09-13T16:07:52.941Z,83.33
2022-09-13T16:08:55.231Z,83.05
2022-09-13T16:09:59.339Z,83.26
2022-09-13T16:11:01.658Z,82.89
2022-09-13T16:12:09.742Z,82.62
2022-09-13T16:13:11.997Z,82.88
2022-09-13T16:14:16.077Z,82.90
2022-09-13T16:15:18.381Z,83.21
2022-09-13T16:16:22.524Z,83.38
2022-09-13T16:17:26.448Z,82.93
2022-09-13T16:18:28.762Z,83.42
2022-09-13T16:19:33.978Z,83.48
2022-09-13T16:20:37.819Z,83.24
2022-09-13T16:21:40.241Z,83.61
2022-09-13T16:22:44.272Z,83.39
2022-09-13T16:23:46.644Z,83.17
2022-09-13T16:24:50.745Z,83.24
2022-09-13T16:25:54.708Z,83.14
2022-09-13T16:26:58.652Z,82.84
2022-09-13T16:28:00.928Z,82.99
2022-09-13T16:29:05.066Z,82.90
2022-09-13T16:30:07.391Z,83.06
2022-09-13T16:31:09.945Z,82.66
2022-09-13T16:32:13.923Z,82.33
2022-09-13T16:33:16.264Z,82.58
2022-09-13T16:34:18.822Z,83.00
2022-09-13T16:35:22.889Z,82.89
2022-09-13T16:36:26.822Z,83.02
2022-09-13T16:37:30.810Z,83.05
2022-09-13T16:38:33.137Z,83.39
2022-09-13T16:39:35.541Z,83.50
2022-09-13T16:40:39.611Z,83.72
2022-09-13T16:41:43.544Z,84.27
2022-09-13T16:42:45.934Z,84.37
2022-09-13T16:43:48.471Z,84.35
2022-09-13T16:44:52.550Z,84.14
2022-09-13T16:45:55.920Z,84.01
2022-09-13T16:46:58.422Z,84.09
2022-09-13T16:48:00.811Z,83.94
2022-09-13T16:49:03.319Z,83.45
2022-09-13T16:50:05.799Z,83.31
2022-09-13T16:51:08.230Z,83.69
2022-09-13T16:52:10.759Z,84.38
2022-09-13T16:53:14.804Z,83.99
2022-09-13T16:54:17.280Z,84.32
2022-09-13T16:55:21.409Z,84.61
2022-09-13T16:56:25.319Z,84.70
2022-09-13T16:57:29.361Z,84.43
2022-09-13T16:58:31.676Z,84.80
2022-09-13T16:59:35.812Z,85.01
2022-09-13T17:00:39.827Z,84.51
2022-09-13T17:01:42.309Z,84.66
2022-09-13T17:02:46.418Z,85.32
2022-09-13T17:03:54.022Z,85.29
2022-09-13T17:04:52.612Z,85.39
2022-09-13T17:05:55.118Z,85.21
2022-09-13T17:06:57.657Z,85.10
2022-09-13T17:08:01.692Z,84.98
2022-09-13T17:17:34.037Z,86.89
2022-09-13T17:18:38.019Z,86.85
2022-09-13T17:19:42.004Z,86.99
2022-09-13T17:29:13.112Z,87.83
2022-09-13T17:30:15.714Z,88.31
2022-09-13T17:31:20.860Z,88.14
2022-09-13T17:32:23.117Z,87.79
2022-09-13T17:33:27.170Z,87.54
2022-09-13T17:42:59.821Z,88.55
2022-09-13T17:44:02.275Z,88.61
2022-09-13T17:53:37.433Z,88.88
2022-09-13T18:03:10.423Z,89.64
2022-09-13T18:12:46.553Z,89.61
2022-09-13T18:22:21.005Z,87.94
2022-09-13T18:31:55.452Z,87.61
2022-09-13T18:41:28.466Z,89.13
2022-09-13T18:51:04.655Z,89.18
2022-09-13T19:00:39.250Z,89.37
2022-09-13T19:10:16.061Z,88.01
2022-09-13T19:19:47.969Z,88.58
2022-09-13T19:29:20.674Z,89.58
2022-09-13T19:38:55.336Z,89.49
2022-09-13T19:48:38.969Z,89.76
2022-09-13T19:58:04.750Z,90.30
2022-09-13T20:07:39.496Z,90.03
2022-09-13T20:17:14.063Z,90.91
2022-09-13T20:26:50.557Z,91.34
2022-09-13T20:36:25.058Z,91.67
2022-09-13T20:45:58.017Z,93.16
2022-09-13T20:55:36.072Z,93.59
2022-09-13T21:05:07.187Z,93.31
2022-09-13T21:14:43.433Z,93.36
2022-09-13T21:24:17.900Z,93.61
2022-09-13T21:33:52.591Z,93.68
2022-09-13T21:43:27.280Z,91.19
2022-09-13T21:53:03.201Z,90.43
2022-09-13T22:02:35.612Z,88.83
2022-09-13T22:12:11.878Z,89.00
2022-09-13T22:21:44.866Z,88.99
2022-09-13T22:31:21.051Z,89.59
2022-09-13T22:40:55.685Z,91.75
2022-09-13T22:50:28.586Z,91.79
2022-09-13T23:00:03.351Z,91.55
2022-09-13T23:09:38.448Z,91.68
2022-09-13T23:19:14.768Z,92.00
2022-09-13T23:28:49.407Z,93.11
2022-09-13T23:38:22.553Z,94.54
2022-09-13T23:47:57.036Z,94.41
2022-09-13T23:57:33.080Z,95.94
